createdAt,value
2023-06-04T00:01:26.928Z,5.57
2023-06-04T00:06:31.419Z,5.38
2023-06-04T00:11:37.884Z,4.35
2023-06-04T00:16:42.137Z,5.30
2023-06-04T00:21:47.638Z,6.05
2023-06-04T00:26:53.234Z,5.75
2023-06-04T00:31:57.433Z,6.43
2023-06-04T00:37:02.682Z,5.47
2023-06-04T00:42:08.782Z,6.13
2023-06-04T00:47:13.683Z,7.38
2023-06-04T00:52:18.510Z,8.17
2023-06-04T00:57:24.385Z,9.00
2023-06-04T01:07:36.849Z,10.43
2023-06-04T01:12:43.210Z,11.82
2023-06-04T01:17:52.795Z,10.73
2023-06-04T01:23:16.398Z,10.35
2023-06-04T01:28:22.943Z,10.13
2023-06-04T01:33:27.635Z,6.90
2023-06-04T01:38:31.974Z,6.20
2023-06-04T01:43:37.544Z,6.72
2023-06-04T01:48:42.086Z,5.68
2023-06-04T01:53:46.204Z,6.78
2023-06-04T01:58:51.918Z,5.68
2023-06-04T02:03:56.240Z,5.65
2023-06-04T02:09:01.796Z,5.10
2023-06-04T02:14:07.515Z,4.90
2023-06-04T02:19:14.026Z,5.55
2023-06-04T02:24:18.109Z,4.47
2023-06-04T02:29:23.815Z,4.35
2023-06-04T02:34:28.180Z,4.68
2023-06-04T02:39:32.506Z,4.50
2023-06-04T02:44:37.931Z,4.32
2023-06-04T02:49:42.140Z,3.88
2023-06-04T02:54:46.320Z,3.75
2023-06-04T02:59:53.155Z,3.70
2023-06-04T03:04:57.210Z,3.72
2023-06-04T03:10:01.177Z,3.80
2023-06-04T03:15:08.303Z,3.55
2023-06-04T03:20:12.751Z,3.78
2023-06-04T03:25:17.087Z,3.47
2023-06-04T03:30:23.020Z,3.00
2023-06-04T03:35:36.791Z,3.43
2023-06-04T03:40:41.201Z,3.50
2023-06-04T03:45:48.088Z,3.25
2023-06-04T03:50:52.479Z,3.53
2023-06-04T03:55:56.881Z,3.45
2023-06-04T04:01:02.647Z,3.38
2023-06-04T04:06:06.924Z,3.50
2023-06-04T04:11:11.244Z,3.40
2023-06-04T04:16:17.475Z,3.30
2023-06-04T04:21:22.116Z,3.40
2023-06-04T04:26:28.922Z,3.55
2023-06-04T04:31:37.676Z,3.53
2023-06-04T04:36:42.622Z,3.35
2023-06-04T04:41:48.063Z,3.50
2023-06-04T04:46:53.818Z,3.65
2023-06-04T04:51:58.195Z,3.40
2023-06-04T04:57:13.417Z,3.53
2023-06-04T05:02:22.557Z,3.47
2023-06-04T05:07:27.566Z,4.22
2023-06-04T05:12:33.141Z,3.47
2023-06-04T05:17:41.829Z,3.97
2023-06-04T05:22:48.626Z,3.25
2023-06-04T05:27:55.734Z,3.70
2023-06-04T05:33:02.367Z,3.40
2023-06-04T05:38:07.701Z,3.20
2023-06-04T05:43:11.894Z,3.20
2023-06-04T05:48:18.006Z,3.50
2023-06-04T05:53:22.465Z,3.10
2023-06-04T05:58:28.761Z,2.90
2023-06-04T06:03:34.531Z,3.17
2023-06-04T06:13:43.335Z,3.20
2023-06-04T06:18:51.625Z,3.05
2023-06-04T06:23:56.278Z,3.20
2023-06-04T06:29:00.869Z,2.50
2023-06-04T06:34:08.884Z,3.15
2023-06-04T06:44:17.357Z,2.60
2023-06-04T06:49:22.972Z,2.95
2023-06-04T06:54:27.172Z,3.45
2023-06-04T06:59:31.289Z,3.20
2023-06-04T07:04:37.412Z,2.50
2023-06-04T07:09:41.598Z,2.95
2023-06-04T07:14:48.215Z,2.78
2023-06-04T07:19:55.027Z,2.72
2023-06-04T07:24:59.055Z,2.65
2023-06-04T07:30:03.358Z,2.72
2023-06-04T07:35:10.378Z,2.80
2023-06-04T07:40:14.583Z,3.28
2023-06-04T07:45:18.909Z,2.88
2023-06-04T07:50:24.586Z,2.70
2023-06-04T08:00:32.934Z,2.92
2023-06-04T08:05:38.501Z,2.30
2023-06-04T08:15:47.008Z,2.92
2023-06-04T08:20:52.574Z,2.75
2023-06-04T08:25:56.783Z,2.40
2023-06-04T08:31:01.553Z,2.58
2023-06-04T08:36:07.960Z,2.10
2023-06-04T08:41:17.426Z,2.45
2023-06-04T08:46:22.912Z,2.22
2023-06-04T08:56:33.962Z,2.40
2023-06-04T09:01:42.093Z,2.25
2023-06-04T09:06:50.133Z,2.47
2023-06-04T09:11:55.516Z,2.45
2023-06-04T09:17:00.372Z,2.50
2023-06-04T09:22:06.394Z,2.22
2023-06-04T09:27:14.885Z,2.42
2023-06-04T09:32:23.664Z,2.60
2023-06-04T09:37:29.310Z,2.30
2023-06-04T09:47:42.341Z,3.05
2023-06-04T09:52:47.877Z,2.67
2023-06-04T10:02:59.894Z,2.40
2023-06-04T10:08:08.730Z,2.50
2023-06-04T10:13:19.461Z,2.58
2023-06-04T10:18:23.950Z,2.08
2023-06-04T10:23:30.615Z,2.58
2023-06-04T10:28:36.142Z,4.15
2023-06-04T10:33:41.442Z,2.88
2023-06-04T10:38:49.520Z,2.38
2023-06-04T10:44:02.440Z,2.22
2023-06-04T10:49:06.553Z,2.42
2023-06-04T10:54:12.091Z,2.63
2023-06-04T10:59:18.594Z,2.58
2023-06-04T11:04:26.718Z,2.33
2023-06-04T11:09:34.570Z,2.30
2023-06-04T11:14:39.095Z,2.45
2023-06-04T11:19:43.629Z,2.30
2023-06-04T11:24:49.754Z,2.38
2023-06-04T11:29:55.145Z,3.10
2023-06-04T11:35:09.070Z,2.45
2023-06-04T11:40:21.772Z,2.83
2023-06-04T11:45:26.912Z,2.80
2023-06-04T11:50:31.408Z,2.70
2023-06-04T11:55:39.725Z,3.10
2023-06-04T12:00:44.398Z,3.03
2023-06-04T12:05:48.628Z,2.70
2023-06-04T12:10:54.035Z,2.63
2023-06-04T12:15:58.247Z,3.00
2023-06-04T12:21:02.352Z,4.03
2023-06-04T12:26:08.480Z,2.70
2023-06-04T12:31:19.246Z,3.20
2023-06-04T12:36:23.562Z,2.80
2023-06-04T12:41:29.281Z,2.80
2023-06-04T12:46:34.676Z,2.55
2023-06-04T12:51:39.691Z,2.92
2023-06-04T12:56:46.094Z,2.95
2023-06-04T13:01:50.484Z,2.95
2023-06-04T13:07:00.102Z,2.50
2023-06-04T13:12:07.268Z,2.58
2023-06-04T13:17:22.158Z,3.17
2023-06-04T13:22:27.476Z,2.80
2023-06-04T13:27:33.047Z,3.00
2023-06-04T13:32:37.220Z,3.03
2023-06-04T13:42:48.195Z,2.97
2023-06-04T13:47:54.425Z,3.20
2023-06-04T13:52:59.430Z,3.30
2023-06-04T13:58:05.014Z,2.90
2023-06-04T14:03:09.395Z,2.75
2023-06-04T14:08:16.427Z,2.97
2023-06-04T14:13:21.945Z,2.60
2023-06-04T14:18:26.068Z,3.20
2023-06-04T14:23:30.351Z,2.60
2023-06-04T14:33:40.783Z,3.10
2023-06-04T14:38:46.083Z,2.88
2023-06-04T14:43:51.557Z,2.60
2023-06-04T14:48:55.845Z,2.88
2023-06-04T14:53:59.883Z,2.75
2023-06-04T15:04:14.961Z,2.65
2023-06-04T15:09:19.290Z,2.95
2023-06-04T15:14:24.916Z,2.70
2023-06-04T15:19:29.194Z,2.80
2023-06-04T15:24:36.539Z,3.20
2023-06-04T15:29:42.086Z,2.90
2023-06-04T15:34:46.641Z,3.88
2023-06-04T15:39:51.423Z,2.83
2023-06-04T15:50:01.082Z,3.10
2023-06-04T15:55:06.075Z,3.05
2023-06-04T16:00:13.638Z,2.95
2023-06-04T16:05:18.665Z,3.05
2023-06-04T16:10:22.998Z,3.38
2023-06-04T16:15:28.507Z,2.83
2023-06-04T16:20:32.636Z,3.28
2023-06-04T16:25:37.563Z,3.55
2023-06-04T16:30:43.045Z,3.85
2023-06-04T16:35:47.204Z,3.28
2023-06-04T16:40:51.284Z,3.53
2023-06-04T16:45:56.980Z,2.80
2023-06-04T16:51:00.915Z,2.65
2023-06-04T16:56:05.923Z,3.00
2023-06-04T17:01:11.856Z,3.75
2023-06-04T17:06:16.037Z,3.35
2023-06-04T17:11:20.091Z,3.67
2023-06-04T17:16:27.511Z,4.35
2023-06-04T17:21:32.924Z,8.85
2023-06-04T17:26:36.998Z,3.63
2023-06-04T17:31:42.808Z,2.90
2023-06-04T17:36:47.024Z,3.60
2023-06-04T17:41:51.147Z,3.97
2023-06-04T17:46:56.769Z,3.38
2023-06-04T17:52:00.963Z,3.10
2023-06-04T17:57:05.924Z,4.00
2023-06-04T18:02:11.462Z,2.90
2023-06-04T18:07:15.656Z,3.10
2023-06-04T18:12:19.726Z,3.55
2023-06-04T18:17:25.589Z,4.13
2023-06-04T18:22:30.339Z,6.97
2023-06-04T18:27:34.677Z,3.58
2023-06-04T18:32:42.048Z,3.80
2023-06-04T18:37:46.185Z,3.58
2023-06-04T18:42:50.322Z,3.97
2023-06-04T18:47:55.801Z,4.53
2023-06-04T18:58:05.076Z,7.73
2023-06-04T19:03:10.897Z,8.60
2023-06-04T19:08:15.025Z,10.98
2023-06-04T19:13:19.248Z,7.22
2023-06-04T19:18:24.627Z,6.43
2023-06-04T19:23:28.831Z,6.57
2023-06-04T19:28:32.952Z,5.47
2023-06-04T19:33:39.269Z,4.63
2023-06-04T19:38:45.741Z,6.20
2023-06-04T19:43:49.989Z,6.47
2023-06-04T19:48:55.940Z,7.15
2023-06-04T19:54:00.524Z,7.93
2023-06-04T19:59:04.927Z,8.80
2023-06-04T20:04:10.719Z,8.20
2023-06-04T20:09:15.813Z,8.73
2023-06-04T20:14:22.150Z,9.10
2023-06-04T20:19:29.212Z,9.23
2023-06-04T20:24:33.444Z,9.52
2023-06-04T20:29:37.600Z,9.55
2023-06-04T20:34:43.202Z,9.80
2023-06-04T20:39:49.994Z,9.05
2023-06-04T20:44:54.185Z,9.80
2023-06-04T20:49:59.828Z,9.35
2023-06-04T20:55:04.017Z,8.05
2023-06-04T21:00:10.447Z,8.57
2023-06-04T21:05:16.091Z,9.05
2023-06-04T21:10:24.244Z,8.05
2023-06-04T21:15:37.880Z,8.98
2023-06-04T21:20:46.295Z,8.40
2023-06-04T21:25:50.746Z,7.00
2023-06-04T21:30:57.382Z,6.47
2023-06-04T21:36:03.170Z,5.78
2023-06-04T21:41:07.676Z,6.30
2023-06-04T21:46:12.098Z,6.13
2023-06-04T21:51:17.769Z,6.68
2023-06-04T21:56:22.042Z,6.78
2023-06-04T22:01:26.195Z,6.57
2023-06-04T22:06:31.705Z,6.65
2023-06-04T22:11:36.143Z,6.45
2023-06-04T22:16:40.260Z,6.47
2023-06-04T22:21:46.223Z,6.18
2023-06-04T22:26:50.574Z,6.60
2023-06-04T22:31:55.039Z,6.85
2023-06-04T22:37:01.091Z,7.10
2023-06-04T22:42:05.523Z,6.88
2023-06-04T22:47:10.492Z,7.60
2023-06-04T22:52:17.156Z,7.93
2023-06-04T22:57:21.282Z,7.32
2023-06-04T23:02:25.480Z,7.05
2023-06-04T23:07:30.983Z,8.95
2023-06-04T23:12:35.142Z,7.63
2023-06-04T23:17:41.214Z,6.67
2023-06-04T23:22:47.320Z,6.60
2023-06-04T23:27:54.704Z,8.10
2023-06-04T23:32:59.350Z,6.85
2023-06-04T23:38:05.052Z,6.93
2023-06-04T23:43:09.096Z,6.93
2023-06-04T23:48:13.224Z,7.07
2023-06-04T23:53:18.827Z,7.07
2023-06-04T23:58:23.177Z,6.70
